Estación de Alto del Carmen

Ultimos registro cada 15 minutos 58
Estación Fecha / Hora Temperatura Humedad Lluvia Velocidad Dirección Radiación Presion
58 Alto del Carmen 03-05-2026 14:15 31,1 13 0 3,6 294 626 1010,7
57 Alto del Carmen 03-05-2026 14:00 31,1 11 0 3,1 303 650 1010,9
56 Alto del Carmen 03-05-2026 13:45 31,2 8 0 3,6 314 671 1011
55 Alto del Carmen 03-05-2026 13:30 30,8 8 0 3,6 294 689 1011,1
54 Alto del Carmen 03-05-2026 13:15 30,8 7 0 1,8 283 700 1011,5
53 Alto del Carmen 03-05-2026 13:00 30,1 7 0 2,2 346 710 1011,9
52 Alto del Carmen 03-05-2026 12:45 29,3 7 0 1,8 332 714 1012
51 Alto del Carmen 03-05-2026 12:30 28,7 8 0 2,7 336 712 1012,1
50 Alto del Carmen 03-05-2026 12:15 27,9 7 0 3,1 326 707 1012,3
49 Alto del Carmen 03-05-2026 12:00 27 9 0 0,9 348 696 1012,9
48 Alto del Carmen 03-05-2026 11:45 26,3 10 0 2,7 311 684 1012,9
47 Alto del Carmen 03-05-2026 11:30 25,4 12 0 1,8 292 666 1013,2
46 Alto del Carmen 03-05-2026 11:15 24,4 11 0 2,2 304 645 1013,4
45 Alto del Carmen 03-05-2026 11:00 23 14 0 1,8 303 617 1013,7
44 Alto del Carmen 03-05-2026 10:45 21,2 15 0 2,7 325 589 1013,8
43 Alto del Carmen 03-05-2026 10:30 20,7 11 0 1,3 20 555 1013,8
42 Alto del Carmen 03-05-2026 10:15 17,1 17 0 0,9 28 522 1013,9
41 Alto del Carmen 03-05-2026 10:00 10,6 36 0 0 28 482 1013,9
40 Alto del Carmen 03-05-2026 09:45 6,6 44 0 0 28 408 1013,7
39 Alto del Carmen 03-05-2026 09:30 5,6 47 0 0 28 21 1013,7
38 Alto del Carmen 03-05-2026 09:15 5,1 53 0 0,4 28 21 1013,7
37 Alto del Carmen 03-05-2026 09:00 5 52 0 0 28 19 1013,9
36 Alto del Carmen 03-05-2026 08:45 4,6 53 0 0,4 28 18 1013,7
35 Alto del Carmen 03-05-2026 08:30 4,3 53 0 0 28 16 1013,5
34 Alto del Carmen 03-05-2026 08:15 3,9 53 0 0,4 28 14 1013,4
33 Alto del Carmen 03-05-2026 08:00 2,7 60 0 0,9 28 12 1013,3
32 Alto del Carmen 03-05-2026 07:45 2,8 59 0 0 28 11 1013,1
31 Alto del Carmen 03-05-2026 07:30 2,9 59 0 0 28 7 1012,9
30 Alto del Carmen 03-05-2026 07:15 3 56 0 0 28 0 1013
29 Alto del Carmen 03-05-2026 07:00 3,7 55 0 0 28 0 1012,8
28 Alto del Carmen 03-05-2026 06:45 4,1 53 0 0 28 0 1012,6
27 Alto del Carmen 03-05-2026 06:30 4,1 56 0 0,9 28 0 1012,4
26 Alto del Carmen 03-05-2026 06:15 4,4 53 0 0,4 28 0 1012,3
25 Alto del Carmen 03-05-2026 06:00 4,8 53 0 0,4 28 0 1012,1
24 Alto del Carmen 03-05-2026 05:45 4,6 53 0 0,4 28 0 1011,7
23 Alto del Carmen 03-05-2026 05:30 4,8 53 0 0,4 26 0 1011,8
22 Alto del Carmen 03-05-2026 05:15 4,7 55 0 0,9 26 0 1011,5
21 Alto del Carmen 03-05-2026 05:00 5 53 0 0,9 26 0 1011,4
20 Alto del Carmen 03-05-2026 04:45 5,6 51 0 0 26 0 1011,7
19 Alto del Carmen 03-05-2026 04:30 5,1 52 0 0,4 26 0 1011,7
18 Alto del Carmen 03-05-2026 04:15 5,6 54 0 0 26 0 1011,7
17 Alto del Carmen 03-05-2026 04:00 5,8 50 0 0,4 26 0 1011,6
16 Alto del Carmen 03-05-2026 03:45 5,8 51 0 0,4 26 0 1011,6
15 Alto del Carmen 03-05-2026 03:30 6,2 55 0 0 26 0 1011,8
14 Alto del Carmen 03-05-2026 03:15 6,7 51 0 0 26 0 1012
13 Alto del Carmen 03-05-2026 03:00 7,2 50 0 0 26 0 1011,9
12 Alto del Carmen 03-05-2026 02:45 7,3 48 0 0 26 0 1012
11 Alto del Carmen 03-05-2026 02:30 7,3 50 0 0,4 26 0 1012,1
10 Alto del Carmen 03-05-2026 02:15 7,7 49 0 0 26 0 1012,2
9 Alto del Carmen 03-05-2026 02:00 7,3 51 0 0 26 0 1012,3
8 Alto del Carmen 03-05-2026 01:45 7,9 51 0 0,9 359 0 1012,6
7 Alto del Carmen 03-05-2026 01:30 7,6 57 0 0,4 359 0 1012,2
6 Alto del Carmen 03-05-2026 01:15 7,2 57 0 0,4 341 0 1012
5 Alto del Carmen 03-05-2026 01:00 7,4 53 0 0,4 341 0 1012
4 Alto del Carmen 03-05-2026 00:45 7,6 52 0 0,4 341 0 1012
3 Alto del Carmen 03-05-2026 00:30 7,9 51 0 0,4 341 0 1012,1
2 Alto del Carmen 03-05-2026 00:15 8,6 52 0 0 341 0 1012
1 Alto del Carmen 03-05-2026 00:00 8,6 52 0 0,4 341 0 1012,2